Time;durP1;ratioP1;P1;durP2;ratioP2;P2;SDS_P1;SDS_P2;PMS_P1;PMS_P2;Temp;Humidity;BMP_temperature;BMP_pressure;BME280_temperature;BME280_humidity;BME280_pressure;Samples;Min_cycle;Max_cycle;Signal;HPM_P1;HPM_P2
2022/10/15 00:00:22;;;;;;;2.60;1.67;;;;;;;11.63;79.58;94880.28;5052159;28;20209;-72
2022/10/15 00:02:49;;;;;;;10.60;2.72;;;;;;;11.57;79.90;94883.50;5080978;28;20257;-72
2022/10/15 00:05:17;;;;;;;3.90;1.95;;;;;;;11.59;79.86;94878.56;5076274;28;20214;-71
2022/10/15 00:07:44;;;;;;;2.35;2.08;;;;;;;11.59;79.97;94884.78;5076566;28;20195;-72
2022/10/15 00:10:11;;;;;;;3.15;2.05;;;;;;;11.56;80.18;94880.00;5083387;28;20214;-75
2022/10/15 00:12:37;;;;;;;3.05;2.25;;;;;;;11.50;80.19;94877.78;5083070;28;20257;-71
2022/10/15 00:15:05;;;;;;;3.67;2.05;;;;;;;11.51;80.49;94876.66;5070111;28;20256;-72
2022/10/15 00:17:32;;;;;;;2.85;1.92;;;;;;;11.48;80.54;94877.34;5083428;28;20287;-72
2022/10/15 00:19:59;;;;;;;2.63;1.50;;;;;;;11.47;81.02;94875.75;5077045;28;20222;-74
2022/10/15 00:22:27;;;;;;;2.25;1.90;;;;;;;11.42;81.23;94873.22;5085229;28;20564;-72
2022/10/15 00:24:54;;;;;;;2.95;1.52;;;;;;;11.36;81.43;94870.66;5082440;28;20199;-72
2022/10/15 00:27:21;;;;;;;2.40;1.45;;;;;;;11.28;81.78;94866.09;5082533;28;20202;-72
2022/10/15 00:29:47;;;;;;;3.90;1.70;;;;;;;11.31;81.84;94873.59;5077346;28;20230;-72
2022/10/15 00:32:14;;;;;;;7.22;2.00;;;;;;;11.20;82.43;94872.34;5075860;28;20223;-72
2022/10/15 00:34:41;;;;;;;2.85;1.70;;;;;;;11.18;82.55;94871.88;5081500;28;20234;-72
2022/10/15 00:37:09;;;;;;;4.32;1.83;;;;;;;11.18;82.21;94868.38;5082506;28;20198;-72
2022/10/15 00:39:37;;;;;;;2.95;1.92;;;;;;;11.18;82.60;94874.59;5077982;28;20285;-72
2022/10/15 00:42:04;;;;;;;2.97;1.92;;;;;;;11.10;82.62;94861.84;5073651;28;20286;-72
2022/10/15 00:44:53;;;;;;;5.28;2.05;;;;;;;11.02;82.94;94857.25;5078615;28;20199;-73
2022/10/15 00:47:25;;;;;;;2.90;1.77;;;;;;;11.05;82.81;94851.19;5076425;28;20235;-73
2022/10/15 00:49:58;;;;;;;6.95;2.25;;;;;;;11.07;82.68;94846.22;5076128;28;20233;-73
2022/10/15 00:52:30;;;;;;;2.22;1.67;;;;;;;11.05;82.86;94840.38;5064395;28;20605;-73
2022/10/15 00:55:05;;;;;;;1.70;1.60;;;;;;;11.03;82.99;94839.88;5075330;28;20279;-73
2022/10/15 00:57:33;;;;;;;4.35;2.38;;;;;;;11.11;83.04;94847.19;5078945;28;20229;-73
2022/10/15 01:00:04;;;;;;;2.95;2.28;;;;;;;11.08;83.31;94842.41;5082045;28;20198;-74
2022/10/15 01:02:31;;;;;;;2.55;2.17;;;;;;;11.09;83.39;94844.00;5079671;28;20238;-73
2022/10/15 01:04:57;;;;;;;1.80;1.50;;;;;;;11.10;83.48;94845.59;5076414;28;20202;-73
2022/10/15 01:07:25;;;;;;;4.13;1.85;;;;;;;11.11;83.47;94840.97;5078599;28;20284;-73
2022/10/15 01:09:51;;;;;;;4.10;1.90;;;;;;;11.12;83.62;94843.34;5082879;28;20616;-72
2022/10/15 01:12:42;;;;;;;3.20;2.20;;;;;;;11.14;83.61;94838.41;5079671;28;20283;-72
2022/10/15 01:15:18;;;;;;;7.22;2.63;;;;;;;11.21;83.52;94835.97;5060233;28;20236;-73
2022/10/15 01:17:50;;;;;;;1.95;1.73;;;;;;;11.19;83.60;94840.94;5086816;28;20201;-73
2022/10/15 01:20:52;;;;;;;8.88;2.42;;;;;;;11.20;83.64;94836.31;5083818;28;20239;-73
2022/10/15 01:24:01;;;;;;;7.20;2.15;;;;;;;11.19;83.77;94835.53;5063637;28;20198;-73
2022/10/15 01:27:02;;;;;;;4.00;2.13;;;;;;;11.20;83.74;94841.75;5067934;28;20194;-73
2022/10/15 01:29:55;;;;;;;4.70;2.65;;;;;;;11.27;83.58;94839.28;5078556;28;20653;-73
2022/10/15 01:32:26;;;;;;;6.05;2.63;;;;;;;11.29;83.17;94840.56;5079867;28;20566;-73
2022/10/15 01:34:59;;;;;;;3.40;2.35;;;;;;;11.25;83.18;94836.13;5083383;28;20252;-73
2022/10/15 01:37:33;;;;;;;3.30;2.42;;;;;;;11.30;83.14;94842.16;5086882;28;20191;-73
2022/10/15 01:40:05;;;;;;;3.13;1.98;;;;;;;11.28;83.23;94835.47;5084662;28;20190;-74
2022/10/15 01:42:34;;;;;;;3.88;2.13;;;;;;;11.30;83.18;94834.03;5079301;28;20237;-73
2022/10/15 01:45:06;;;;;;;2.90;2.53;;;;;;;11.30;83.11;94828.59;5079233;28;20739;-73
2022/10/15 01:47:37;;;;;;;4.03;2.38;;;;;;;11.32;82.89;94831.00;5066870;28;20209;-73
2022/10/15 01:50:07;;;;;;;2.67;2.10;;;;;;;11.31;82.27;94830.19;5077795;28;20199;-73
2022/10/15 01:52:38;;;;;;;3.72;2.25;;;;;;;11.34;82.56;94840.38;5069138;28;20226;-72
2022/10/15 01:55:08;;;;;;;2.15;1.88;;;;;;;11.31;82.60;94830.19;5079288;28;20272;-72
2022/10/15 01:57:37;;;;;;;2.20;1.75;;;;;;;11.36;82.62;94838.13;5082703;28;20280;-72
2022/10/15 02:00:05;;;;;;;3.55;2.85;;;;;;;11.35;82.60;94835.75;5085065;28;20199;-72
2022/10/15 02:02:31;;;;;;;2.40;1.85;;;;;;;11.34;82.88;94840.38;5081736;28;20287;-71
2022/10/15 02:04:59;;;;;;;2.85;2.20;;;;;;;11.32;83.13;94836.41;5079050;28;20606;-71
2022/10/15 02:07:35;;;;;;;5.45;2.63;;;;;;;11.34;82.94;94839.59;5081826;28;20721;-71
2022/10/15 02:10:12;;;;;;;4.03;2.40;;;;;;;11.37;83.04;94831.59;5085595;28;20638;-71
2022/10/15 02:12:54;;;;;;;3.95;2.65;;;;;;;11.35;82.87;94836.53;5085736;28;20218;-70
2022/10/15 02:15:33;;;;;;;2.63;2.28;;;;;;;11.35;82.76;94833.81;5071675;28;20237;-71
2022/10/15 02:18:05;;;;;;;2.10;1.40;;;;;;;11.36;82.40;94838.13;5085622;28;20560;-71
2022/10/15 02:20:40;;;;;;;3.60;2.03;;;;;;;11.34;82.82;94834.16;5083893;28;20645;-71
2022/10/15 02:23:13;;;;;;;3.30;1.50;;;;;;;11.29;83.13;94831.63;5088444;28;20198;-71
2022/10/15 02:25:41;;;;;;;5.03;2.00;;;;;;;11.27;83.15;94845.53;5077835;28;20253;-71
2022/10/15 02:28:11;;;;;;;3.20;1.95;;;;;;;11.18;83.86;94843.97;5084537;28;20207;-71
2022/10/15 02:30:41;;;;;;;2.50;2.00;;;;;;;11.19;84.02;94843.66;5084897;28;20201;-71
2022/10/15 02:33:08;;;;;;;3.85;2.20;;;;;;;11.11;84.26;94844.47;5080243;28;20266;-70
2022/10/15 02:35:37;;;;;;;4.63;2.50;;;;;;;11.15;84.55;94853.56;5078197;28;20499;-70
2022/10/15 02:38:08;;;;;;;3.40;2.13;;;;;;;11.13;84.64;94842.22;5082601;28;20207;-70
2022/10/15 02:40:37;;;;;;;2.92;2.00;;;;;;;11.06;85.15;94833.81;5074438;28;20205;-70
2022/10/15 02:43:06;;;;;;;4.70;2.30;;;;;;;11.04;85.37;94841.47;5081685;28;20195;-70
2022/10/15 02:45:33;;;;;;;4.30;2.75;;;;;;;10.99;85.73;94849.78;5084900;28;20701;-70
2022/10/15 02:47:59;;;;;;;4.57;2.72;;;;;;;11.05;85.70;94851.19;5082860;28;20268;-70
2022/10/15 02:50:26;;;;;;;2.47;2.05;;;;;;;11.07;85.51;94854.34;5074069;28;20203;-70
2022/10/15 02:52:54;;;;;;;3.60;2.17;;;;;;;11.09;85.68;94844.00;5082435;28;20259;-70
2022/10/15 02:55:21;;;;;;;4.03;2.80;;;;;;;11.04;86.10;94846.91;5078181;28;20206;-70
2022/10/15 02:57:47;;;;;;;6.38;2.72;;;;;;;11.10;85.78;94848.28;5080905;28;20219;-70
2022/10/15 03:00:15;;;;;;;2.90;2.15;;;;;;;11.01;86.35;94847.53;5076011;28;20247;-70
2022/10/15 03:02:41;;;;;;;9.50;2.47;;;;;;;11.03;86.39;94839.88;5089460;28;20278;-70
2022/10/15 03:05:09;;;;;;;3.08;2.33;;;;;;;11.04;86.50;94830.63;5078113;28;20198;-70
2022/10/15 03:07:36;;;;;;;6.18;2.28;;;;;;;11.03;86.39;94842.59;5080474;28;20203;-71
2022/10/15 03:10:05;;;;;;;3.65;2.63;;;;;;;10.99;86.80;94849.78;5085218;28;20206;-71
2022/10/15 03:12:32;;;;;;;3.03;2.03;;;;;;;10.85;87.42;94838.34;5082657;28;20662;-70
2022/10/15 03:14:58;;;;;;;3.92;2.25;;;;;;;10.90;87.43;94851.72;5072167;28;20199;-70
2022/10/15 03:17:25;;;;;;;3.97;2.58;;;;;;;10.86;87.62;94845.34;5083818;28;20198;-70
2022/10/15 03:19:52;;;;;;;3.90;2.45;;;;;;;10.81;88.11;94842.81;5076987;28;20214;-70
2022/10/15 03:22:19;;;;;;;2.60;1.67;;;;;;;10.81;87.99;94842.81;5086610;28;20673;-70
2022/10/15 03:24:45;;;;;;;3.10;2.63;;;;;;;10.81;87.85;94853.66;5077524;28;20232;-70
2022/10/15 03:27:13;;;;;;;2.53;2.15;;;;;;;10.86;87.58;94856.19;5077615;28;20195;-70
2022/10/15 03:29:40;;;;;;;3.47;2.08;;;;;;;10.87;87.56;94842.31;5076170;28;20199;-70
2022/10/15 03:32:07;;;;;;;3.40;2.25;;;;;;;10.88;87.52;94848.53;5083622;28;20230;-70
2022/10/15 03:34:33;;;;;;;3.83;2.25;;;;;;;10.88;87.39;94848.53;5076836;28;20261;-70
2022/10/15 03:37:00;;;;;;;2.47;2.03;;;;;;;10.90;87.07;94846.31;5077476;28;20248;-70
2022/10/15 03:39:27;;;;;;;4.28;2.78;;;;;;;10.91;86.99;94843.28;5063796;28;20242;-70
2022/10/15 03:41:53;;;;;;;4.13;2.13;;;;;;;10.92;86.84;94846.78;5076733;28;20207;-70
2022/10/15 03:44:21;;;;;;;3.00;2.10;;;;;;;10.87;86.97;94841.53;5082859;28;20292;-71
2022/10/15 03:46:48;;;;;;;6.00;3.10;;;;;;;10.81;87.13;94837.38;5083901;28;20606;-71
2022/10/15 03:49:15;;;;;;;3.92;2.35;;;;;;;10.73;87.73;94849.84;5077771;28;20263;-72
2022/10/15 03:51:42;;;;;;;4.60;2.67;;;;;;;10.69;88.02;94851.63;5077178;28;20305;-71
2022/10/15 03:54:08;;;;;;;5.88;2.35;;;;;;;10.66;88.20;94854.97;5083349;28;20223;-71
2022/10/15 03:56:35;;;;;;;4.10;2.08;;;;;;;10.65;88.23;94853.41;5083877;28;20248;-71
2022/10/15 03:59:02;;;;;;;3.33;2.38;;;;;;;10.62;88.26;94857.53;5077734;28;20234;-70
2022/10/15 04:01:30;;;;;;;11.10;2.60;;;;;;;10.66;88.32;94858.47;5076790;28;20542;-74
2022/10/15 04:03:56;;;;;;;3.65;2.30;;;;;;;10.68;88.27;94864.38;5081834;28;20229;-71
2022/10/15 04:06:23;;;;;;;4.22;2.17;;;;;;;10.62;88.58;94864.88;5083797;28;20194;-70
2022/10/15 04:08:50;;;;;;;5.88;2.75;;;;;;;10.66;88.65;94855.75;5078228;28;20247;-70
2022/10/15 04:11:16;;;;;;;2.90;1.77;;;;;;;10.72;88.60;94855.59;5076730;28;20648;-71
2022/10/15 04:13:43;;;;;;;3.00;2.25;;;;;;;10.67;88.92;94865.47;5081507;28;20278;-69
2022/10/15 04:16:10;;;;;;;4.57;2.65;;;;;;;10.61;89.03;94855.94;5072420;28;20223;-72
2022/10/15 04:18:38;;;;;;;3.33;2.42;;;;;;;10.66;88.82;94863.88;5080712;28;20265;-71
2022/10/15 04:21:05;;;;;;;3.67;2.28;;;;;;;10.62;89.06;94862.97;5083218;28;20387;-72
2022/10/15 04:23:31;;;;;;;5.00;3.08;;;;;;;10.60;89.23;94862.47;5080055;28;20272;-71
2022/10/15 04:26:00;;;;;;;2.97;2.58;;;;;;;10.60;89.21;94865.19;5083797;28;20279;-71
2022/10/15 04:28:27;;;;;;;3.90;2.67;;;;;;;10.54;89.53;94858.34;5080312;28;20208;-71
2022/10/15 04:30:56;;;;;;;6.80;3.20;;;;;;;10.46;90.10;94869.97;5076138;28;20667;-71
2022/10/15 04:33:23;;;;;;;6.53;2.90;;;;;;;10.47;90.21;94863.44;5079202;28;20219;-72
2022/10/15 04:35:59;;;;;;;4.50;2.30;;;;;;;10.42;90.36;94874.44;5082785;28;20211;-72
2022/10/15 04:38:26;;;;;;;2.53;2.25;;;;;;;10.42;90.63;94870.94;5081891;28;20730;-71
2022/10/15 04:40:59;;;;;;;3.25;2.45;;;;;;;10.39;90.75;94872.38;5076359;28;20563;-72
2022/10/15 04:43:26;;;;;;;3.67;2.45;;;;;;;10.41;90.93;94875.56;5076860;28;20206;-71
2022/10/15 04:45:56;;;;;;;5.40;3.00;;;;;;;10.43;90.91;94876.03;5082392;28;20203;-73
2022/10/15 04:48:23;;;;;;;4.05;2.83;;;;;;;10.46;90.81;94885.44;5082138;28;20202;-71
2022/10/15 04:50:49;;;;;;;6.07;3.25;;;;;;;10.44;90.98;94882.25;5075956;28;20198;-70
2022/10/15 04:53:17;;;;;;;5.43;2.80;;;;;;;10.47;90.90;94887.84;5075730;28;20227;-71
2022/10/15 04:55:44;;;;;;;6.88;3.05;;;;;;;10.49;90.66;94893.72;5082124;28;20199;-71
2022/10/15 04:58:11;;;;;;;7.72;3.20;;;;;;;10.55;90.63;94892.44;5081873;28;20298;-70
2022/10/15 05:00:38;;;;;;;4.22;2.83;;;;;;;10.65;89.92;94883.19;5069330;28;20263;-71
2022/10/15 05:03:05;;;;;;;5.28;3.60;;;;;;;10.69;90.08;94895.75;5083687;28;20275;-71
2022/10/15 05:05:31;;;;;;;10.40;4.07;;;;;;;10.65;89.99;94892.13;5075603;28;20203;-72
2022/10/15 05:08:00;;;;;;;8.55;2.78;;;;;;;10.71;89.71;94892.72;5082896;28;20195;-71
2022/10/15 05:10:28;;;;;;;6.20;3.33;;;;;;;10.74;89.47;94891.28;5074233;28;20191;-71
2022/10/15 05:12:55;;;;;;;4.93;3.22;;;;;;;10.73;89.57;94900.53;5069884;28;20214;-71
2022/10/15 05:15:22;;;;;;;9.20;4.00;;;;;;;10.76;89.43;94899.91;5068208;28;20214;-72
2022/10/15 05:17:48;;;;;;;6.10;3.63;;;;;;;10.77;89.23;94901.50;5067908;28;20215;-71
2022/10/15 05:20:15;;;;;;;4.78;3.25;;;;;;;10.85;88.91;94904.19;5068251;28;20219;-71
2022/10/15 05:22:42;;;;;;;7.05;3.40;;;;;;;10.86;88.53;94905.78;5071931;28;20206;-72
2022/10/15 05:25:09;;;;;;;5.85;3.40;;;;;;;10.80;89.30;94906.25;5068732;28;20211;-74
2022/10/15 05:27:37;;;;;;;5.88;3.22;;;;;;;10.83;89.29;94906.41;5068387;28;20572;-74
2022/10/15 05:30:05;;;;;;;6.00;3.45;;;;;;;10.96;88.58;94905.44;5067477;28;20280;-72
2022/10/15 05:32:32;;;;;;;7.60;3.28;;;;;;;11.01;88.41;94915.31;5067991;28;20713;-73
2022/10/15 05:34:58;;;;;;;4.40;3.35;;;;;;;11.09;87.68;94914.47;5067680;28;20299;-72
2022/10/15 05:37:25;;;;;;;4.55;3.25;;;;;;;11.20;87.32;94915.75;5061117;28;20195;-71
2022/10/15 05:39:52;;;;;;;7.88;3.22;;;;;;;11.19;86.96;94913.34;5066312;28;20712;-72
2022/10/15 05:42:19;;;;;;;7.80;3.22;;;;;;;11.19;87.26;94913.34;5069739;28;20199;-73
2022/10/15 05:44:47;;;;;;;4.32;3.47;;;;;;;11.03;87.78;94923.91;5064253;28;20199;-73
2022/10/15 05:47:13;;;;;;;4.35;3.20;;;;;;;11.08;87.41;94915.59;5065023;28;20245;-73
2022/10/15 05:49:40;;;;;;;5.60;4.18;;;;;;;11.15;87.36;94928.66;5059425;28;20277;-72
2022/10/15 05:52:07;;;;;;;5.25;3.47;;;;;;;11.31;86.66;94930.53;5067914;28;20285;-73
2022/10/15 05:54:33;;;;;;;5.22;3.50;;;;;;;11.51;85.68;94925.50;5069178;28;20219;-72
2022/10/15 05:57:00;;;;;;;6.18;3.70;;;;;;;11.51;85.54;94925.50;5067284;28;20223;-72
2022/10/15 05:59:27;;;;;;;12.27;3.72;;;;;;;11.70;84.80;94928.63;5067693;28;20335;-73
2022/10/15 06:01:55;;;;;;;7.05;3.97;;;;;;;11.70;84.43;94936.75;5072469;28;20215;-72
2022/10/15 06:04:21;;;;;;;7.40;3.20;;;;;;;11.83;84.13;94922.19;5071381;28;20223;-72
2022/10/15 06:06:48;;;;;;;5.75;3.90;;;;;;;11.95;83.50;94926.91;5076279;28;20210;-73
2022/10/15 06:09:15;;;;;;;8.50;3.05;;;;;;;12.15;82.76;94925.34;5077245;28;20221;-73
2022/10/15 06:11:42;;;;;;;7.05;3.47;;;;;;;12.22;81.93;94929.13;5075111;28;20207;-73
2022/10/15 06:14:08;;;;;;;3.78;2.78;;;;;;;12.33;81.84;94924.09;5091374;28;20234;-73
2022/10/15 06:16:36;;;;;;;11.32;3.92;;;;;;;12.42;81.58;94927.56;5077779;28;20470;-74
2022/10/15 06:19:04;;;;;;;5.05;3.10;;;;;;;12.50;81.02;94940.28;5078936;28;20617;-74
2022/10/15 06:21:31;;;;;;;5.32;2.83;;;;;;;12.65;80.23;94934.22;5087886;28;20549;-74
2022/10/15 06:23:57;;;;;;;3.08;2.42;;;;;;;12.65;79.83;94936.97;5078695;28;20203;-73
2022/10/15 06:26:24;;;;;;;3.63;2.35;;;;;;;12.70;79.64;94944.91;5065013;28;20274;-73
2022/10/15 06:28:51;;;;;;;3.78;3.10;;;;;;;12.78;79.32;94941.31;5078511;28;20203;-74
2022/10/15 06:31:18;;;;;;;4.32;2.40;;;;;;;12.77;78.77;94945.16;5064730;28;20221;-73
2022/10/15 06:33:44;;;;;;;5.80;3.72;;;;;;;13.00;78.35;94940.13;5077978;28;20223;-74
2022/10/15 06:36:13;;;;;;;4.95;3.20;;;;;;;13.68;76.20;94945.19;5078259;28;20282;-73
2022/10/15 06:38:42;;;;;;;3.83;2.47;;;;;;;13.83;73.89;94952.69;5077458;28;20231;-72
2022/10/15 06:41:09;;;;;;;6.18;4.00;;;;;;;13.78;74.22;94952.94;5083810;28;20199;-72
2022/10/15 06:43:36;;;;;;;7.85;3.08;;;;;;;14.51;72.18;94947.44;5085175;28;20606;-72
2022/10/15 06:46:05;;;;;;;4.72;2.88;;;;;;;15.06;70.02;94948.63;5071680;28;20210;-73
2022/10/15 06:48:32;;;;;;;4.10;2.42;;;;;;;14.82;69.88;94944.06;5085076;28;20206;-72
2022/10/15 06:51:00;;;;;;;3.85;2.50;;;;;;;14.48;70.90;94945.41;5078944;28;20194;-72
2022/10/15 06:53:29;;;;;;;4.82;2.13;;;;;;;14.17;71.90;94948.72;5078435;28;20237;-72
2022/10/15 06:56:00;;;;;;;7.85;3.50;;;;;;;14.37;71.07;94955.16;5071141;28;20627;-72
2022/10/15 06:58:27;;;;;;;2.22;2.03;;;;;;;14.36;70.63;94948.13;5074426;28;20195;-71
2022/10/15 07:00:59;;;;;;;8.15;4.32;;;;;;;14.36;71.01;94953.56;5070301;28;20257;-72
2022/10/15 07:03:25;;;;;;;5.68;2.10;;;;;;;14.36;69.95;94945.38;5069802;28;20454;-72
2022/10/15 07:05:52;;;;;;;6.10;2.72;;;;;;;14.41;70.20;94947.91;5069533;28;20199;-71
2022/10/15 07:08:19;;;;;;;6.43;3.28;;;;;;;14.32;70.62;94952.69;5072285;28;20607;-72
2022/10/15 07:10:47;;;;;;;4.97;2.97;;;;;;;14.07;70.69;94958.16;5071234;28;20207;-72
2022/10/15 07:13:14;;;;;;;4.55;2.53;;;;;;;14.18;70.84;94959.28;5068136;28;20253;-72
2022/10/15 07:15:43;;;;;;;6.40;2.83;;;;;;;14.07;71.17;94963.59;5068742;28;20338;-72
2022/10/15 07:18:10;;;;;;;4.32;2.45;;;;;;;13.95;71.05;94971.75;5069198;28;20222;-72
2022/10/15 07:20:36;;;;;;;4.28;2.95;;;;;;;13.81;72.03;94971.28;5069177;28;21056;-71
2022/10/15 07:23:03;;;;;;;5.55;2.88;;;;;;;14.02;71.94;94966.56;5072183;28;20731;-71
2022/10/15 07:25:30;;;;;;;7.72;4.70;;;;;;;14.18;70.20;94963.94;5069427;28;20194;-73
2022/10/15 07:27:58;;;;;;;4.10;3.08;;;;;;;14.26;70.35;94967.66;5069173;28;20187;-72
2022/10/15 07:30:27;;;;;;;4.05;2.45;;;;;;;14.17;70.15;94968.59;5068315;28;20257;-72
2022/10/15 07:32:55;;;;;;;8.13;2.55;;;;;;;13.82;71.34;94962.00;5062907;28;20205;-71
2022/10/15 07:35:22;;;;;;;5.15;2.90;;;;;;;14.16;70.84;94956.09;5076106;28;20283;-72
2022/10/15 07:37:49;;;;;;;5.05;2.72;;;;;;;14.97;68.04;94967.09;5083092;28;20631;-73
2022/10/15 07:40:16;;;;;;;4.60;2.75;;;;;;;15.10;67.00;94963.16;5069366;28;20245;-73
2022/10/15 07:42:43;;;;;;;3.55;2.47;;;;;;;15.62;65.50;94966.53;5064234;28;21012;-73
2022/10/15 07:45:11;;;;;;;3.65;2.35;;;;;;;15.80;63.96;94963.47;5077269;28;20210;-72
2022/10/15 07:47:40;;;;;;;5.20;2.70;;;;;;;15.40;64.21;94964.38;5080352;28;20627;-73
2022/10/15 07:50:08;;;;;;;5.30;3.13;;;;;;;15.86;64.29;94967.53;5083933;28;20198;-73
2022/10/15 07:52:34;;;;;;;4.40;2.63;;;;;;;15.33;64.71;94964.19;5077473;28;20263;-71
2022/10/15 07:55:01;;;;;;;7.30;4.18;;;;;;;14.86;65.03;94962.13;5076512;28;20280;-73
2022/10/15 07:57:28;;;;;;;7.20;3.28;;;;;;;14.61;66.08;94949.69;5081973;28;20211;-72
2022/10/15 07:59:54;;;;;;;5.03;2.15;;;;;;;14.66;66.41;94963.06;5071233;28;20522;-73
2022/10/15 08:02:23;;;;;;;3.90;2.63;;;;;;;14.62;67.16;94956.75;5089153;28;20226;-74
2022/10/15 08:04:49;;;;;;;7.00;4.38;;;;;;;14.68;66.99;94965.47;5076700;28;20268;-70
2022/10/15 08:07:16;;;;;;;9.63;3.13;;;;;;;14.84;66.86;94969.84;5081009;28;20673;-70
2022/10/15 08:09:43;;;;;;;5.80;2.95;;;;;;;14.77;66.68;94980.53;5083005;28;20252;-70
2022/10/15 08:12:09;;;;;;;5.78;3.63;;;;;;;14.58;67.08;94964.03;5078143;28;20247;-70
2022/10/15 08:14:37;;;;;;;5.13;3.00;;;;;;;14.62;66.58;94966.84;5073472;28;20705;-70
2022/10/15 08:17:04;;;;;;;7.15;2.50;;;;;;;14.87;66.34;94963.72;5079386;28;20219;-72
2022/10/15 08:19:33;;;;;;;8.23;3.13;;;;;;;14.64;67.01;94959.91;5076140;28;20198;-72
2022/10/15 08:22:00;;;;;;;3.80;2.40;;;;;;;14.55;66.64;94956.53;5074388;28;20263;-72
2022/10/15 08:24:26;;;;;;;6.60;2.70;;;;;;;14.57;67.22;94959.69;5069585;28;20230;-72
2022/10/15 08:26:53;;;;;;;5.63;2.70;;;;;;;14.49;67.06;94952.44;5065869;28;20233;-71
2022/10/15 08:29:20;;;;;;;5.53;2.63;;;;;;;14.36;67.22;94961.75;5067882;28;20248;-70
2022/10/15 08:31:46;;;;;;;4.25;2.83;;;;;;;14.32;67.41;94958.13;5068410;28;20219;-71
2022/10/15 08:34:13;;;;;;;9.32;4.00;;;;;;;14.52;66.29;94955.28;5067728;28;20191;-71
2022/10/15 08:36:41;;;;;;;7.95;2.50;;;;;;;14.50;65.54;94949.38;5067404;28;20276;-71
2022/10/15 08:39:08;;;;;;;3.50;1.95;;;;;;;14.51;65.79;94952.88;5067432;28;20207;-70
2022/10/15 08:41:40;;;;;;;5.30;3.90;;;;;;;14.55;65.27;94946.41;5063381;28;20657;-70
2022/10/15 08:44:15;;;;;;;3.78;2.50;;;;;;;14.73;65.82;94944.22;5066351;28;20272;-71
2022/10/15 08:46:46;;;;;;;4.90;2.50;;;;;;;14.50;65.87;94951.28;5066099;28;20320;-78
2022/10/15 08:49:24;;;;;;;2.55;1.77;;;;;;;14.57;64.90;94949.59;5066293;28;20192;-69
2022/10/15 08:51:59;;;;;;;4.10;2.60;;;;;;;14.92;64.50;94944.34;5062086;28;20202;-70
2022/10/15 08:54:35;;;;;;;2.70;2.05;;;;;;;15.30;62.37;94948.53;5067146;28;20195;-71
2022/10/15 08:57:16;;;;;;;4.35;2.80;;;;;;;15.13;63.05;94948.81;5065921;28;20580;-70
2022/10/15 08:59:52;;;;;;;4.97;2.75;;;;;;;15.16;63.12;94942.69;5066814;28;20240;-71
2022/10/15 09:02:24;;;;;;;4.45;3.40;;;;;;;15.15;62.85;94946.53;5065222;28;20222;-71
2022/10/15 09:04:57;;;;;;;7.82;2.85;;;;;;;15.39;62.15;94946.41;5065960;28;20456;-72
2022/10/15 09:07:31;;;;;;;3.03;1.92;;;;;;;15.19;62.02;94948.22;5066389;28;20183;-71
2022/10/15 09:10:11;;;;;;;5.53;3.10;;;;;;;15.31;62.16;94952.03;5065998;28;20275;-71
2022/10/15 09:12:46;;;;;;;6.18;3.60;;;;;;;15.33;61.97;94952.47;5064802;28;20195;-70
2022/10/15 09:15:15;;;;;;;4.10;2.85;;;;;;;15.37;61.66;94947.91;5065096;28;20272;-71
2022/10/15 09:17:44;;;;;;;4.40;2.60;;;;;;;15.59;61.93;94952.78;5058299;28;20219;-71
2022/10/15 09:20:17;;;;;;;4.00;2.40;;;;;;;15.63;59.93;94956.41;5066004;28;20249;-72
2022/10/15 09:22:50;;;;;;;3.95;2.40;;;;;;;15.49;59.96;94958.75;5065277;28;20194;-73
2022/10/15 09:25:19;;;;;;;3.63;1.90;;;;;;;15.81;58.96;94945.94;5064745;28;20189;-72
2022/10/15 09:27:47;;;;;;;2.42;1.60;;;;;;;16.08;58.39;94950.53;5065711;28;20195;-71
2022/10/15 09:30:26;;;;;;;3.75;2.30;;;;;;;16.19;58.17;94946.09;5065971;28;20306;-71
2022/10/15 09:32:58;;;;;;;2.63;1.77;;;;;;;16.09;58.09;94941.16;5064982;28;20233;-72
2022/10/15 09:35:29;;;;;;;6.45;2.38;;;;;;;16.29;56.67;94942.81;5066942;28;20203;-71
2022/10/15 09:38:11;;;;;;;6.75;2.28;;;;;;;15.78;58.52;94946.66;5069867;28;20276;-73
2022/10/15 09:40:52;;;;;;;4.47;2.55;;;;;;;16.44;57.01;94934.91;5070685;28;20218;-71
2022/10/15 09:43:26;;;;;;;7.60;3.05;;;;;;;16.86;56.71;94938.59;5069720;28;20491;-73
2022/10/15 09:45:53;;;;;;;7.35;3.50;;;;;;;16.81;55.48;94925.19;5069060;28;20306;-73
2022/10/15 09:48:21;;;;;;;6.57;3.08;;;;;;;16.35;56.33;94922.25;5067959;28;20199;-70
2022/10/15 09:50:55;;;;;;;5.32;3.63;;;;;;;15.83;57.64;94932.72;5070347;28;20653;-71
2022/10/15 09:53:36;;;;;;;4.30;2.40;;;;;;;15.89;57.29;94931.31;5068524;28;20190;-71
2022/10/15 09:56:11;;;;;;;10.25;2.33;;;;;;;16.20;56.79;94930.47;5064725;28;20280;-71
2022/10/15 09:58:44;;;;;;;4.70;3.50;;;;;;;16.57;55.54;94928.19;5070864;28;20264;-70
2022/10/15 10:01:18;;;;;;;5.55;3.58;;;;;;;15.98;57.56;94923.75;5067472;28;20191;-69
2022/10/15 10:03:44;;;;;;;5.03;3.40;;;;;;;16.28;57.68;94933.00;5074724;28;20299;-70
2022/10/15 10:06:13;;;;;;;3.45;1.90;;;;;;;16.51;54.41;94926.88;5076625;28;20664;-70
2022/10/15 10:08:49;;;;;;;5.95;2.22;;;;;;;16.84;55.03;94927.22;5091422;28;20246;-70
2022/10/15 10:11:16;;;;;;;5.68;3.55;;;;;;;17.08;54.62;94926.16;5088147;28;20185;-70
2022/10/15 10:13:49;;;;;;;5.00;3.17;;;;;;;17.11;54.92;94927.34;5089288;28;20202;-70
2022/10/15 10:16:18;;;;;;;4.22;2.47;;;;;;;16.88;53.68;94932.78;5088393;28;20238;-70
2022/10/15 10:19:02;;;;;;;3.28;1.88;;;;;;;16.27;54.48;94942.34;5089116;28;20241;-70
2022/10/15 10:21:32;;;;;;;4.50;2.42;;;;;;;16.73;54.11;94930.88;5089275;28;20194;-70
2022/10/15 10:24:19;;;;;;;4.88;2.80;;;;;;;16.83;54.27;94919.38;5087808;28;20191;-70
2022/10/15 10:26:47;;;;;;;1.27;0.65;;;;;;;16.85;54.08;94917.84;5088359;28;20283;-72
2022/10/15 10:29:20;;;;;;;5.45;1.90;;;;;;;16.28;54.74;94933.00;5088829;28;20243;-69
2022/10/15 10:31:50;;;;;;;4.10;2.60;;;;;;;16.13;55.59;94928.38;5090280;28;20210;-70
2022/10/15 10:34:24;;;;;;;5.70;2.70;;;;;;;16.56;55.00;94910.19;5087360;28;20183;-69
2022/10/15 10:36:53;;;;;;;5.03;3.17;;;;;;;16.77;54.27;94916.13;5089914;28;20706;-69
2022/10/15 10:39:27;;;;;;;4.72;3.08;;;;;;;16.70;53.76;94915.97;5087295;28;20240;-70
2022/10/15 10:41:56;;;;;;;6.63;3.00;;;;;;;16.50;54.18;94922.56;5089381;28;20206;-69
2022/10/15 10:44:27;;;;;;;5.68;3.30;;;;;;;16.51;53.96;94918.69;5088745;28;20259;-69
2022/10/15 10:47:10;;;;;;;3.85;2.90;;;;;;;16.44;52.71;94923.97;5088774;28;20290;-70
2022/10/15 10:49:38;;;;;;;6.45;2.83;;;;;;;16.27;53.19;94915.03;5087064;28;20248;-71
2022/10/15 10:52:06;;;;;;;4.15;2.88;;;;;;;16.15;54.99;94926.06;5090049;28;20251;-72
2022/10/15 10:54:34;;;;;;;4.80;3.00;;;;;;;16.06;53.64;94919.22;5089693;28;20194;-71
2022/10/15 10:57:02;;;;;;;3.92;3.00;;;;;;;16.05;54.94;94914.91;5089679;28;20271;-72
2022/10/15 10:59:34;;;;;;;5.55;2.95;;;;;;;16.10;53.11;94917.38;5088625;28;20190;-73
2022/10/15 11:02:03;;;;;;;4.05;2.95;;;;;;;16.03;54.19;94915.25;5089584;28;20271;-72
2022/10/15 11:04:32;;;;;;;4.95;3.30;;;;;;;16.20;53.47;94911.34;5090140;28;20183;-72
2022/10/15 11:07:03;;;;;;;5.05;3.17;;;;;;;16.34;52.43;94908.94;5086453;28;20700;-71
2022/10/15 11:09:47;;;;;;;4.38;3.15;;;;;;;16.60;52.57;94892.69;5088009;28;20183;-71
2022/10/15 11:12:48;;;;;;;3.67;2.63;;;;;;;17.08;52.06;94892.50;5086132;28;20248;-70
2022/10/15 11:15:24;;;;;;;3.00;2.17;;;;;;;17.15;49.33;94895.38;5085341;28;20383;-70
2022/10/15 11:18:01;;;;;;;2.92;2.47;;;;;;;17.39;49.31;94892.28;5088096;28;20707;-70
2022/10/15 11:20:41;;;;;;;3.70;2.58;;;;;;;17.87;48.15;94881.78;5087450;28;21289;-70
2022/10/15 11:23:24;;;;;;;3.35;2.25;;;;;;;17.89;47.89;94893.19;5087752;28;20594;-71
2022/10/15 11:26:01;;;;;;;3.47;2.55;;;;;;;17.48;49.64;94890.13;5085304;28;20179;-70
2022/10/15 11:28:48;;;;;;;3.75;2.70;;;;;;;17.40;49.12;94894.66;5087221;28;20232;-70
2022/10/15 11:31:23;;;;;;;5.32;2.60;;;;;;;17.41;49.55;94889.97;5087372;28;20217;-71
2022/10/15 11:34:09;;;;;;;3.45;2.50;;;;;;;17.52;49.31;94893.69;5088315;28;20296;-71
2022/10/15 11:36:49;;;;;;;3.58;2.75;;;;;;;17.60;49.37;94892.69;5088225;28;20271;-71
2022/10/15 11:39:31;;;;;;;5.90;2.92;;;;;;;17.57;50.16;94887.91;5087845;28;20722;-71
2022/10/15 11:42:07;;;;;;;3.88;2.50;;;;;;;17.63;49.46;94885.69;5087789;28;20200;-71
2022/10/15 11:44:47;;;;;;;6.53;2.63;;;;;;;18.14;49.50;94877.09;5087863;28;20252;-70
2022/10/15 11:47:28;;;;;;;3.88;2.65;;;;;;;18.26;46.75;94869.44;5086266;28;20583;-71